Time;durP1;ratioP1;P1;durP2;ratioP2;P2;SDS_P1;SDS_P2;PMS_P1;PMS_P2;Temp;Humidity;BMP_temperature;BMP_pressure;BME280_temperature;BME280_humidity;BME280_pressure;Samples;Min_cycle;Max_cycle;Signal;HPM_P1;HPM_P2
2022/05/22 00:00:07;;;;;;;6.63;3.10;;;;;;;;;;5092843;28;20482;-71
2022/05/22 00:02:34;;;;;;;6.50;4.40;;;;;;;;;;5093217;28;20454;-72
2022/05/22 00:05:01;;;;;;;6.60;4.63;;;;;;;;;;5093180;28;21038;-72
2022/05/22 00:07:30;;;;;;;6.00;4.03;;;;;;;;;;5093178;28;20446;-72
2022/05/22 00:09:57;;;;;;;4.13;2.50;;;;;;;;;;5092816;28;20475;-72
2022/05/22 00:12:24;;;;;;;3.33;2.90;;;;;;;;;;5093037;28;21002;-71
2022/05/22 00:14:51;;;;;;;5.23;3.40;;;;;;;;;;5093135;28;20454;-71
2022/05/22 00:17:18;;;;;;;3.77;2.70;;;;;;;;;;5093081;28;20462;-71
2022/05/22 00:19:45;;;;;;;4.70;2.33;;;;;;;;;;5096367;28;20470;-71
2022/05/22 00:22:12;;;;;;;4.60;2.47;;;;;;;;;;5096839;28;20844;-71
2022/05/22 00:24:41;;;;;;;4.90;2.20;;;;;;;;;;5096407;28;20462;-71
2022/05/22 00:27:08;;;;;;;5.33;2.70;;;;;;;;;;5096745;28;20794;-71
2022/05/22 00:29:36;;;;;;;4.00;2.80;;;;;;;;;;5096826;28;20894;-71
2022/05/22 00:32:04;;;;;;;3.67;2.70;;;;;;;;;;5096657;28;20623;-71
2022/05/22 00:34:31;;;;;;;4.17;3.70;;;;;;;;;;5096600;28;20454;-71
2022/05/22 00:36:58;;;;;;;6.23;3.60;;;;;;;;;;5096554;28;20450;-71
2022/05/22 00:39:25;;;;;;;5.50;3.70;;;;;;;;;;5096486;28;20463;-71
2022/05/22 00:41:55;;;;;;;3.00;2.63;;;;;;;;;;5096495;28;20447;-71
2022/05/22 00:44:22;;;;;;;3.60;2.93;;;;;;;;;;5096462;28;20450;-71
2022/05/22 00:46:50;;;;;;;6.00;3.07;;;;;;;;;;5096341;28;20792;-71
2022/05/22 00:49:21;;;;;;;3.30;3.00;;;;;;;;;;5095945;28;20454;-71
2022/05/22 00:51:50;;;;;;;9.83;3.93;;;;;;;;;;5095999;28;20561;-71
2022/05/22 00:54:19;;;;;;;3.97;3.10;;;;;;;;;;5096243;28;20446;-71
2022/05/22 00:56:48;;;;;;;6.77;3.43;;;;;;;;;;5096136;28;20939;-71
2022/05/22 00:59:21;;;;;;;4.73;3.60;;;;;;;;;;5096095;28;20947;-71
2022/05/22 01:01:48;;;;;;;3.50;3.07;;;;;;;;;;5096117;28;20470;-71
2022/05/22 01:04:18;;;;;;;9.40;3.70;;;;;;;;;;5096027;28;20462;-71
2022/05/22 01:06:45;;;;;;;5.97;4.07;;;;;;;;;;5096011;28;20928;-71
2022/05/22 01:09:12;;;;;;;4.30;3.23;;;;;;;;;;5095916;28;20450;-71
2022/05/22 01:11:40;;;;;;;4.23;3.33;;;;;;;;;;5095940;28;20482;-71
2022/05/22 01:14:08;;;;;;;4.50;2.87;;;;;;;;;;5095837;28;20815;-71
2022/05/22 01:16:37;;;;;;;6.03;3.30;;;;;;;;;;5095818;28;20450;-71
2022/05/22 01:19:10;;;;;;;3.10;2.60;;;;;;;;;;5095817;28;20534;-71
2022/05/22 01:21:37;;;;;;;4.93;3.03;;;;;;;;;;5095822;28;20431;-71
2022/05/22 01:24:06;;;;;;;6.00;3.60;;;;;;;;;;5095240;28;20462;-71
2022/05/22 01:26:33;;;;;;;6.07;3.90;;;;;;;;;;5095505;28;20454;-71
2022/05/22 01:29:00;;;;;;;8.90;5.00;;;;;;;;;;5095327;28;20431;-71
2022/05/22 01:31:27;;;;;;;14.33;5.17;;;;;;;;;;5095377;28;20490;-71
2022/05/22 01:33:55;;;;;;;6.70;3.20;;;;;;;;;;5095525;28;20870;-71
2022/05/22 01:36:22;;;;;;;5.80;3.83;;;;;;;;;;5095462;28;20450;-71
2022/05/22 01:38:49;;;;;;;3.63;3.30;;;;;;;;;;5095358;28;20450;-72
2022/05/22 01:41:17;;;;;;;3.87;3.57;;;;;;;;;;5095313;28;20471;-71
2022/05/22 01:43:45;;;;;;;6.70;4.10;;;;;;;;;;5094960;28;20459;-71
2022/05/22 01:46:12;;;;;;;4.80;3.63;;;;;;;;;;5095289;28;20815;-71
2022/05/22 01:48:39;;;;;;;4.37;3.67;;;;;;;;;;5095218;28;20459;-71
2022/05/22 01:51:06;;;;;;;5.17;4.37;;;;;;;;;;5094999;28;20494;-72
2022/05/22 01:53:34;;;;;;;4.03;3.50;;;;;;;;;;5095019;28;20488;-71
2022/05/22 01:56:01;;;;;;;9.13;3.77;;;;;;;;;;5094752;28;20446;-71
2022/05/22 01:58:29;;;;;;;7.63;3.67;;;;;;;;;;5094999;28;20461;-71
2022/05/22 02:00:57;;;;;;;3.37;3.07;;;;;;;;;;5094539;28;20471;-71
2022/05/22 02:03:24;;;;;;;4.10;3.57;;;;;;;;;;5094629;28;20461;-71
2022/05/22 02:05:51;;;;;;;3.80;3.50;;;;;;;;;;5094881;28;20466;-71
2022/05/22 02:08:22;;;;;;;3.73;3.40;;;;;;;;;;5094729;28;20466;-71
2022/05/22 02:10:50;;;;;;;4.53;3.60;;;;;;;;;;5094607;28;20466;-71
2022/05/22 02:13:20;;;;;;;3.73;3.43;;;;;;;;;;5094582;28;20447;-71
2022/05/22 02:15:49;;;;;;;10.83;2.87;;;;;;;;;;5094590;28;21073;-71
2022/05/22 02:18:16;;;;;;;4.73;3.63;;;;;;;;;;5094641;28;20435;-71
2022/05/22 02:20:43;;;;;;;7.23;3.70;;;;;;;;;;5094355;28;20496;-71
2022/05/22 02:23:10;;;;;;;4.20;3.40;;;;;;;;;;5094185;28;20468;-71
2022/05/22 02:25:38;;;;;;;8.73;3.20;;;;;;;;;;5094408;28;20947;-71
2022/05/22 02:28:06;;;;;;;3.83;3.40;;;;;;;;;;5094346;28;20454;-71
2022/05/22 02:30:35;;;;;;;7.87;4.27;;;;;;;;;;5094250;28;20462;-71
2022/05/22 02:33:04;;;;;;;4.80;3.57;;;;;;;;;;5094126;28;20493;-71
2022/05/22 02:35:31;;;;;;;5.73;3.63;;;;;;;;;;5093866;28;20465;-71
2022/05/22 02:37:59;;;;;;;6.10;4.23;;;;;;;;;;5094213;28;20908;-71
2022/05/22 02:40:27;;;;;;;13.00;4.10;;;;;;;;;;5093076;28;20470;-71
2022/05/22 02:42:54;;;;;;;5.07;3.77;;;;;;;;;;5094092;28;20442;-71
2022/05/22 02:45:23;;;;;;;4.30;3.90;;;;;;;;;;5093685;28;20447;-71
2022/05/22 02:47:50;;;;;;;6.17;4.30;;;;;;;;;;5093915;28;20463;-71
2022/05/22 02:50:19;;;;;;;4.23;3.40;;;;;;;;;;5093512;28;20482;-71
2022/05/22 02:52:46;;;;;;;4.17;3.77;;;;;;;;;;5093503;28;20478;-71
2022/05/22 02:55:13;;;;;;;6.00;4.60;;;;;;;;;;5094006;28;20451;-71
2022/05/22 02:57:41;;;;;;;4.80;3.80;;;;;;;;;;5093700;28;20454;-71
2022/05/22 03:00:10;;;;;;;4.90;4.50;;;;;;;;;;5093685;28;20502;-71
2022/05/22 03:02:37;;;;;;;4.60;3.80;;;;;;;;;;5093743;28;20455;-71
2022/05/22 03:05:05;;;;;;;4.43;4.00;;;;;;;;;;5093726;28;20451;-71
2022/05/22 03:07:36;;;;;;;8.70;3.60;;;;;;;;;;5093648;28;20943;-71
2022/05/22 03:10:04;;;;;;;5.17;3.90;;;;;;;;;;5093578;28;20987;-71
2022/05/22 03:12:31;;;;;;;5.30;3.73;;;;;;;;;;5093267;28;20486;-71
2022/05/22 03:14:59;;;;;;;6.03;3.37;;;;;;;;;;5093547;28;20457;-71
2022/05/22 03:17:27;;;;;;;5.80;4.23;;;;;;;;;;5093567;28;20458;-71
2022/05/22 03:19:54;;;;;;;4.07;3.50;;;;;;;;;;5093476;28;20477;-71
2022/05/22 03:22:21;;;;;;;8.00;3.57;;;;;;;;;;5093181;28;20449;-71
2022/05/22 03:24:50;;;;;;;5.90;3.83;;;;;;;;;;5093057;28;20463;-71
2022/05/22 03:27:18;;;;;;;8.27;4.33;;;;;;;;;;5093081;28;20459;-71
2022/05/22 03:29:45;;;;;;;4.17;3.77;;;;;;;;;;5093052;28;20473;-71
2022/05/22 03:32:13;;;;;;;4.47;4.07;;;;;;;;;;5092960;28;20497;-71
2022/05/22 03:34:40;;;;;;;6.37;4.70;;;;;;;;;;5093080;28;20457;-71
2022/05/22 03:37:07;;;;;;;4.23;3.83;;;;;;;;;;5093362;28;20815;-71
2022/05/22 03:39:35;;;;;;;5.60;4.40;;;;;;;;;;5092975;28;20471;-71
2022/05/22 03:42:03;;;;;;;3.80;3.50;;;;;;;;;;5092953;28;20451;-71
2022/05/22 03:44:31;;;;;;;5.10;4.20;;;;;;;;;;5092946;28;20450;-71
2022/05/22 03:46:58;;;;;;;7.70;3.60;;;;;;;;;;5093255;28;20486;-71
2022/05/22 03:49:25;;;;;;;8.00;4.57;;;;;;;;;;5093249;28;20455;-71
2022/05/22 03:51:52;;;;;;;3.50;3.20;;;;;;;;;;5093861;28;20486;-71
2022/05/22 03:54:19;;;;;;;4.63;4.00;;;;;;;;;;5096950;28;20446;-71
2022/05/22 03:56:46;;;;;;;6.83;4.47;;;;;;;;;;5097258;28;20450;-71
2022/05/22 03:59:15;;;;;;;4.83;4.43;;;;;;;;;;5096762;28;20453;-71
2022/05/22 04:01:42;;;;;;;5.83;3.90;;;;;;;;;;5097168;28;20954;-71
2022/05/22 04:04:09;;;;;;;4.80;4.40;;;;;;;;;;5097162;28;20473;-71
2022/05/22 04:06:36;;;;;;;3.97;3.57;;;;;;;;;;5097132;28;20447;-71
2022/05/22 04:09:04;;;;;;;4.57;4.17;;;;;;;;;;5096999;28;20450;-71
2022/05/22 04:11:31;;;;;;;4.10;3.70;;;;;;;;;;5096858;28;20458;-71
2022/05/22 04:13:58;;;;;;;6.50;4.00;;;;;;;;;;5096958;28;20529;-71
2022/05/22 04:16:26;;;;;;;4.20;3.43;;;;;;;;;;5096920;28;20450;-71
2022/05/22 04:18:53;;;;;;;19.73;3.80;;;;;;;;;;5096854;28;20431;-71
2022/05/22 04:21:20;;;;;;;3.70;3.20;;;;;;;;;;5096312;28;20470;-71
2022/05/22 04:26:33;;;;;;;5.77;3.30;;;;;;;;;;5096725;28;20410;-72
2022/05/22 04:29:00;;;;;;;6.07;3.17;;;;;;;;;;5096386;28;20545;-72
2022/05/22 04:31:29;;;;;;;6.50;3.53;;;;;;;;;;5096469;28;20470;-72
2022/05/22 04:33:56;;;;;;;5.80;3.00;;;;;;;;;;5096515;28;20810;-72
2022/05/22 04:36:23;;;;;;;5.40;2.87;;;;;;;;;;5096529;28;20450;-72
2022/05/22 04:38:50;;;;;;;5.40;2.60;;;;;;;;;;5096122;28;20447;-72
2022/05/22 04:41:18;;;;;;;7.40;3.10;;;;;;;;;;5096461;28;20482;-72
2022/05/22 04:43:46;;;;;;;4.03;2.77;;;;;;;;;;5096110;28;20552;-72
2022/05/22 04:46:13;;;;;;;5.33;3.60;;;;;;;;;;5096338;28;20939;-72
2022/05/22 04:48:41;;;;;;;3.83;3.53;;;;;;;;;;5096220;28;20861;-72
2022/05/22 04:51:09;;;;;;;5.27;3.30;;;;;;;;;;5096229;28;20479;-72
2022/05/22 04:53:37;;;;;;;3.20;2.73;;;;;;;;;;5096151;28;20486;-73
2022/05/22 04:56:05;;;;;;;5.80;4.47;;;;;;;;;;5095825;28;20456;-72
2022/05/22 04:58:32;;;;;;;3.60;2.70;;;;;;;;;;5096204;28;20446;-72
2022/05/22 05:00:59;;;;;;;4.37;2.53;;;;;;;;;;5096068;28;20474;-72
2022/05/22 05:03:26;;;;;;;6.13;2.63;;;;;;;;;;5095496;28;20932;-72
2022/05/22 05:05:57;;;;;;;4.97;2.80;;;;;;;;;;5096077;28;20910;-72
2022/05/22 05:08:24;;;;;;;4.03;2.80;;;;;;;;;;5096063;28;20470;-72
2022/05/22 05:10:52;;;;;;;5.43;2.50;;;;;;;;;;5095903;28;20475;-73
2022/05/22 05:13:19;;;;;;;4.33;3.93;;;;;;;;;;5095573;28;20482;-72
2022/05/22 05:15:46;;;;;;;4.03;2.90;;;;;;;;;;5095504;28;20451;-73
2022/05/22 05:18:14;;;;;;;4.30;2.33;;;;;;;;;;5095933;28;20436;-72
2022/05/22 05:20:42;;;;;;;3.07;2.23;;;;;;;;;;5095764;28;20971;-73
2022/05/22 05:23:10;;;;;;;2.77;2.10;;;;;;;;;;5095370;28;20465;-73
2022/05/22 05:25:37;;;;;;;5.23;2.40;;;;;;;;;;5095761;28;20435;-72
2022/05/22 05:28:05;;;;;;;4.83;2.40;;;;;;;;;;5095611;28;20446;-72
2022/05/22 05:30:32;;;;;;;4.60;2.27;;;;;;;;;;5095524;28;20493;-73
2022/05/22 05:32:59;;;;;;;4.43;2.10;;;;;;;;;;5095556;28;20491;-73
2022/05/22 05:35:26;;;;;;;7.87;2.53;;;;;;;;;;5095546;28;20450;-73
2022/05/22 05:37:53;;;;;;;5.33;2.70;;;;;;;;;;5095184;28;20453;-73
2022/05/22 05:40:22;;;;;;;8.80;2.60;;;;;;;;;;5095394;28;20494;-73
2022/05/22 05:42:49;;;;;;;5.73;2.90;;;;;;;;;;5095364;28;20450;-73
2022/05/22 05:45:17;;;;;;;3.37;2.57;;;;;;;;;;5095321;28;20450;-73
2022/05/22 05:47:46;;;;;;;4.13;2.00;;;;;;;;;;5095235;28;20451;-73
2022/05/22 05:50:13;;;;;;;4.97;2.63;;;;;;;;;;5094835;28;20478;-74
2022/05/22 05:52:40;;;;;;;3.97;2.70;;;;;;;;;;5095091;28;20482;-73
2022/05/22 05:55:08;;;;;;;3.57;3.27;;;;;;;;;;5095128;28;20458;-73
2022/05/22 05:57:37;;;;;;;3.50;3.20;;;;;;;;;;5095091;28;20817;-73
2022/05/22 06:00:05;;;;;;;3.47;2.33;;;;;;;;;;5094597;28;20526;-73
2022/05/22 06:02:32;;;;;;;4.47;2.60;;;;;;;;;;5094982;28;20868;-73
2022/05/22 06:04:59;;;;;;;3.70;2.60;;;;;;;;;;5094928;28;20450;-73
2022/05/22 06:07:27;;;;;;;5.90;2.80;;;;;;;;;;5094866;28;20445;-73
2022/05/22 06:09:54;;;;;;;5.20;2.97;;;;;;;;;;5094734;28;20836;-73
2022/05/22 06:12:21;;;;;;;2.80;2.23;;;;;;;;;;5094426;28;20478;-73
2022/05/22 06:14:49;;;;;;;4.57;2.37;;;;;;;;;;5094428;28;20480;-73
2022/05/22 06:17:17;;;;;;;5.10;2.43;;;;;;;;;;5094059;28;20454;-73
2022/05/22 06:19:57;;;;;;;5.37;2.80;;;;;;;;;;5094588;28;20470;-73
2022/05/22 06:22:24;;;;;;;4.30;2.80;;;;;;;;;;5094545;28;20449;-73
2022/05/22 06:24:52;;;;;;;5.43;3.23;;;;;;;;;;5094177;28;20466;-73
2022/05/22 06:27:19;;;;;;;5.87;2.50;;;;;;;;;;5094480;28;20451;-73
2022/05/22 06:29:46;;;;;;;9.23;2.43;;;;;;;;;;5094459;28;20816;-73
2022/05/22 06:32:16;;;;;;;5.20;2.30;;;;;;;;;;5094338;28;20446;-73
2022/05/22 06:34:44;;;;;;;3.00;2.37;;;;;;;;;;5094335;28;20864;-73
2022/05/22 06:37:12;;;;;;;5.00;2.13;;;;;;;;;;5094356;28;20458;-73
2022/05/22 06:39:52;;;;;;;4.23;2.23;;;;;;;;;;5093911;28;20473;-73
2022/05/22 06:42:21;;;;;;;3.67;2.70;;;;;;;;;;5093956;28;20445;-73
2022/05/22 06:44:52;;;;;;;2.83;2.50;;;;;;;;;;5094296;28;20457;-73
2022/05/22 06:47:21;;;;;;;7.23;2.23;;;;;;;;;;5094074;28;20457;-73
2022/05/22 06:49:48;;;;;;;5.20;2.20;;;;;;;;;;5094011;28;20481;-74
2022/05/22 06:52:15;;;;;;;3.13;2.10;;;;;;;;;;5093720;28;20450;-74
2022/05/22 06:54:42;;;;;;;3.87;2.20;;;;;;;;;;5093673;28;20457;-73
2022/05/22 06:57:10;;;;;;;5.87;3.00;;;;;;;;;;5094030;28;20466;-73
2022/05/22 06:59:37;;;;;;;6.70;3.03;;;;;;;;;;5093921;28;20474;-73
2022/05/22 07:02:04;;;;;;;5.80;2.23;;;;;;;;;;5093906;28;20446;-73
2022/05/22 07:04:33;;;;;;;2.73;2.20;;;;;;;;;;5093627;28;20451;-73
2022/05/22 07:07:00;;;;;;;2.53;2.20;;;;;;;;;;5093826;28;20450;-74
2022/05/22 07:09:27;;;;;;;3.10;2.17;;;;;;;;;;5093824;28;20474;-73
2022/05/22 07:11:55;;;;;;;3.80;2.30;;;;;;;;;;5093878;28;20478;-73
2022/05/22 07:14:23;;;;;;;6.27;3.17;;;;;;;;;;5093580;28;20485;-73
2022/05/22 07:16:51;;;;;;;4.30;3.43;;;;;;;;;;5093780;28;20450;-73
2022/05/22 07:19:19;;;;;;;5.33;3.30;;;;;;;;;;5093716;28;20792;-73
2022/05/22 07:21:47;;;;;;;6.43;3.10;;;;;;;;;;5093743;28;20454;-73
2022/05/22 07:24:15;;;;;;;6.10;3.30;;;;;;;;;;5093223;28;20458;-73
2022/05/22 07:26:42;;;;;;;8.70;3.60;;;;;;;;;;5093267;28;20462;-73
2022/05/22 07:29:09;;;;;;;6.43;3.20;;;;;;;;;;5093478;28;20454;-73
2022/05/22 07:31:36;;;;;;;3.57;3.27;;;;;;;;;;5093564;28;20446;-73
2022/05/22 07:34:03;;;;;;;4.93;3.03;;;;;;;;;;5093490;28;20481;-73
2022/05/22 07:36:30;;;;;;;3.30;3.00;;;;;;;;;;5093498;28;20961;-73
2022/05/22 07:38:59;;;;;;;3.63;2.83;;;;;;;;;;5093506;28;20454;-73
2022/05/22 07:41:26;;;;;;;10.00;3.00;;;;;;;;;;5093334;28;20492;-73
2022/05/22 07:43:53;;;;;;;13.40;11.43;;;;;;;;;;5093388;28;20444;-73
2022/05/22 07:46:20;;;;;;;3.30;2.40;;;;;;;;;;5093101;28;20446;-73
2022/05/22 07:48:47;;;;;;;4.73;2.00;;;;;;;;;;5093364;28;20923;-73
2022/05/22 07:51:14;;;;;;;4.57;3.00;;;;;;;;;;5093304;28;20477;-73
2022/05/22 07:53:42;;;;;;;6.60;2.87;;;;;;;;;;5093294;28;21016;-73
2022/05/22 07:56:11;;;;;;;4.03;2.50;;;;;;;;;;5093271;28;20507;-73
2022/05/22 07:58:39;;;;;;;3.70;2.73;;;;;;;;;;5092997;28;20459;-73
2022/05/22 08:01:06;;;;;;;4.57;2.30;;;;;;;;;;5093294;28;20991;-74
2022/05/22 08:03:33;;;;;;;3.70;2.10;;;;;;;;;;5092843;28;20453;-73
2022/05/22 08:06:01;;;;;;;4.53;2.40;;;;;;;;;;5092845;28;20453;-73
2022/05/22 08:08:28;;;;;;;6.53;2.10;;;;;;;;;;5093063;28;20446;-73
2022/05/22 08:10:55;;;;;;;5.53;1.90;;;;;;;;;;5093024;28;20466;-73
2022/05/22 08:13:24;;;;;;;5.23;2.13;;;;;;;;;;5092711;28;20506;-73
2022/05/22 08:15:51;;;;;;;3.47;2.00;;;;;;;;;;5093118;28;20588;-73
2022/05/22 08:18:18;;;;;;;3.70;1.70;;;;;;;;;;5092728;28;20457;-73
2022/05/22 08:20:46;;;;;;;6.83;2.30;;;;;;;;;;5092883;28;20466;-74
2022/05/22 08:23:18;;;;;;;2.67;2.33;;;;;;;;;;5092755;28;20498;-73
2022/05/22 08:25:46;;;;;;;5.30;2.10;;;;;;;;;;5093013;28;20500;-73
2022/05/22 08:28:13;;;;;;;2.13;1.70;;;;;;;;;;5092951;28;20822;-73
2022/05/22 08:30:42;;;;;;;3.53;1.93;;;;;;;;;;5092856;28;20842;-73
2022/05/22 08:33:09;;;;;;;4.23;1.70;;;;;;;;;;5092835;28;20486;-73
2022/05/22 08:35:38;;;;;;;4.67;2.00;;;;;;;;;;5092872;28;20443;-73
2022/05/22 08:38:05;;;;;;;3.30;1.70;;;;;;;;;;5092567;28;20466;-73
2022/05/22 08:40:37;;;;;;;2.83;1.97;;;;;;;;;;5095744;28;20466;-74
2022/05/22 08:43:06;;;;;;;4.97;2.17;;;;;;;;;;5096542;28;20430;-73
2022/05/22 08:45:38;;;;;;;2.93;1.90;;;;;;;;;;5096198;28;20458;-73
2022/05/22 08:48:08;;;;;;;3.30;1.90;;;;;;;;;;5096087;28;20431;-72
2022/05/22 08:50:37;;;;;;;3.63;2.10;;;;;;;;;;5096004;28;20478;-73
2022/05/22 08:53:05;;;;;;;3.47;1.60;;;;;;;;;;5096256;28;20493;-73
2022/05/22 09:01:08;;;;;;;2.13;1.80;;;;;;;;;;5095913;28;20438;-73
2022/05/22 09:03:40;;;;;;;2.87;2.00;;;;;;;;;;5096046;28;20822;-73
2022/05/22 09:06:08;;;;;;;5.83;2.50;;;;;;;;;;5096069;28;20435;-73
2022/05/22 09:08:39;;;;;;;2.80;2.10;;;;;;;;;;5095720;28;20454;-73
2022/05/22 09:11:09;;;;;;;2.80;1.73;;;;;;;;;;5095591;28;20474;-73
2022/05/22 09:13:41;;;;;;;3.00;2.20;;;;;;;;;;5095587;28;20482;-73
2022/05/22 09:16:12;;;;;;;3.97;1.90;;;;;;;;;;5095901;28;20431;-73
2022/05/22 09:18:45;;;;;;;2.90;2.30;;;;;;;;;;5095892;28;20431;-73
2022/05/22 09:21:17;;;;;;;3.90;1.83;;;;;;;;;;5095476;28;21005;-73
2022/05/22 09:23:49;;;;;;;3.30;1.70;;;;;;;;;;5095323;28;20462;-73
2022/05/22 09:26:23;;;;;;;3.40;1.60;;;;;;;;;;5095676;28;20796;-73
2022/05/22 09:28:54;;;;;;;3.57;2.07;;;;;;;;;;5095381;28;20443;-73
2022/05/22 09:31:25;;;;;;;2.13;1.70;;;;;;;;;;5095232;28;20473;-73
2022/05/22 09:33:59;;;;;;;4.83;2.00;;;;;;;;;;5095475;28;20467;-73
2022/05/22 09:36:30;;;;;;;4.80;2.03;;;;;;;;;;5095207;28;20441;-73
2022/05/22 09:39:04;;;;;;;4.90;2.57;;;;;;;;;;5095459;28;20435;-73
2022/05/22 09:41:40;;;;;;;3.77;2.00;;;;;;;;;;5095151;28;20439;-74
2022/05/22 09:44:16;;;;;;;3.20;1.93;;;;;;;;;;5095384;28;20559;-74
2022/05/22 09:46:53;;;;;;;7.70;3.10;;;;;;;;;;5095064;28;20435;-73
2022/05/22 09:49:28;;;;;;;1.90;1.70;;;;;;;;;;5095156;28;20435;-73
2022/05/22 09:51:58;;;;;;;2.90;1.60;;;;;;;;;;5095265;28;20446;-73
2022/05/22 09:54:40;;;;;;;3.57;1.93;;;;;;;;;;5094838;28;20478;-73
2022/05/22 09:57:13;;;;;;;2.83;1.60;;;;;;;;;;5095130;28;20442;-73
2022/05/22 09:59:57;;;;;;;2.17;1.57;;;;;;;;;;5095084;28;20838;-73
2022/05/22 10:02:26;;;;;;;4.47;1.60;;;;;;;;;;5095324;28;20966;-73
2022/05/22 10:04:59;;;;;;;3.43;1.70;;;;;;;;;;5095039;28;20442;-74
2022/05/22 10:07:30;;;;;;;3.30;1.80;;;;;;;;;;5094661;28;20438;-75
2022/05/22 10:10:01;;;;;;;2.53;1.43;;;;;;;;;;5094973;28;20473;-73
2022/05/22 10:12:34;;;;;;;2.60;1.60;;;;;;;;;;5094917;28;20435;-73
2022/05/22 10:15:12;;;;;;;4.27;2.10;;;;;;;;;;5094863;28;20831;-74
2022/05/22 10:17:48;;;;;;;2.43;1.50;;;;;;;;;;5094730;28;20492;-73
2022/05/22 10:20:21;;;;;;;3.70;1.80;;;;;;;;;;5094664;28;20886;-73
2022/05/22 10:22:55;;;;;;;2.20;1.60;;;;;;;;;;5094584;28;20507;-74
2022/05/22 10:25:28;;;;;;;3.87;1.67;;;;;;;;;;5094607;28;20924;-74
2022/05/22 10:27:57;;;;;;;3.40;1.90;;;;;;;;;;5094662;28;20923;-74
2022/05/22 10:30:27;;;;;;;2.37;1.77;;;;;;;;;;5094485;28;20489;-73
2022/05/22 10:32:57;;;;;;;3.27;1.93;;;;;;;;;;5094481;28;20808;-73
2022/05/22 10:35:28;;;;;;;2.77;1.90;;;;;;;;;;5094729;28;20991;-73
2022/05/22 10:37:58;;;;;;;2.80;1.50;;;;;;;;;;5094531;28;20525;-73
2022/05/22 10:40:25;;;;;;;5.67;2.00;;;;;;;;;;5093998;28;20467;-73
2022/05/22 10:42:53;;;;;;;3.33;1.70;;;;;;;;;;5094222;28;20520;-74
2022/05/22 10:45:22;;;;;;;5.73;2.27;;;;;;;;;;5094222;28;20449;-73
2022/05/22 10:47:49;;;;;;;4.07;1.90;;;;;;;;;;5093939;28;20455;-74
2022/05/22 10:50:18;;;;;;;2.37;1.30;;;;;;;;;;5094121;28;20471;-73
2022/05/22 10:52:47;;;;;;;2.53;1.57;;;;;;;;;;5094166;28;20454;-74
2022/05/22 10:55:19;;;;;;;2.27;1.40;;;;;;;;;;5094037;28;20861;-73
2022/05/22 10:57:54;;;;;;;2.20;1.17;;;;;;;;;;5093845;28;20454;-74
2022/05/22 11:00:22;;;;;;;3.70;1.60;;;;;;;;;;5094011;28;20478;-74
2022/05/22 11:02:49;;;;;;;3.43;1.47;;;;;;;;;;5093437;28;20455;-74
2022/05/22 11:05:18;;;;;;;3.23;2.00;;;;;;;;;;5093710;28;20446;-74
2022/05/22 11:07:46;;;;;;;2.17;1.50;;;;;;;;;;5093882;28;20462;-73
2022/05/22 11:10:17;;;;;;;3.10;1.30;;;;;;;;;;5093811;28;20467;-75
2022/05/22 11:12:44;;;;;;;2.17;1.40;;;;;;;;;;5094238;28;20896;-74
2022/05/22 11:15:14;;;;;;;1.53;1.40;;;;;;;;;;5093802;28;20501;-74
2022/05/22 11:17:42;;;;;;;5.10;1.60;;;;;;;;;;5093770;28;20827;-74
2022/05/22 11:20:12;;;;;;;2.23;1.30;;;;;;;;;;5093794;28;20467;-74
2022/05/22 11:22:40;;;;;;;2.43;1.57;;;;;;;;;;5093604;28;20467;-74
2022/05/22 11:25:19;;;;;;;2.83;1.40;;;;;;;;;;5093771;28;20437;-74
2022/05/22 11:27:54;;;;;;;3.50;1.50;;;;;;;;;;5093401;28;20439;-74
2022/05/22 11:30:28;;;;;;;1.80;1.50;;;;;;;;;;5093675;28;20818;-74
2022/05/22 11:33:08;;;;;;;2.10;1.50;;;;;;;;;;5093664;28;20443;-74
2022/05/22 11:35:39;;;;;;;3.40;3.10;;;;;;;;;;5093541;28;20479;-73
2022/05/22 11:38:22;;;;;;;1.90;1.40;;;;;;;;;;5093230;28;20430;-74
2022/05/22 11:40:52;;;;;;;3.87;1.50;;;;;;;;;;5093476;28;20562;-74
2022/05/22 11:43:33;;;;;;;3.40;2.73;;;;;;;;;;5093420;28;20818;-73
2022/05/22 11:46:03;;;;;;;4.83;1.80;;;;;;;;;;5093543;28;20431;-73
2022/05/22 11:48:38;;;;;;;4.80;1.40;;;;;;;;;;5093452;28;20451;-74
2022/05/22 11:51:11;;;;;;;3.93;1.50;;;;;;;;;;5093506;28;20476;-74
2022/05/22 11:53:53;;;;;;;6.50;1.70;;;;;;;;;;5093392;28;20431;-74
2022/05/22 11:56:38;;;;;;;5.13;1.50;;;;;;;;;;5090818;28;20478;-73
2022/05/22 11:59:11;;;;;;;2.70;1.60;;;;;;;;;;5093378;28;20435;-73
2022/05/22 12:01:42;;;;;;;2.90;1.57;;;;;;;;;;5093084;28;20435;-74
2022/05/22 12:04:21;;;;;;;1.97;1.50;;;;;;;;;;5092980;28;20426;-73
2022/05/22 12:06:55;;;;;;;2.27;1.40;;;;;;;;;;5093268;28;20435;-74
2022/05/22 12:09:30;;;;;;;2.23;1.60;;;;;;;;;;5093266;28;20430;-74
2022/05/22 12:12:01;;;;;;;3.30;1.80;;;;;;;;;;5093297;28;20434;-74
2022/05/22 12:14:34;;;;;;;2.70;1.60;;;;;;;;;;5094521;28;20474;-73
2022/05/22 12:17:04;;;;;;;5.10;2.27;;;;;;;;;;5097108;28;20439;-73
2022/05/22 12:19:38;;;;;;;2.40;1.70;;;;;;;;;;5097295;28;20544;-74
2022/05/22 12:22:10;;;;;;;2.37;1.70;;;;;;;;;;5097131;28;20441;-73
2022/05/22 12:24:41;;;;;;;2.30;1.50;;;;;;;;;;5096688;28;20462;-73
2022/05/22 12:27:12;;;;;;;1.73;1.50;;;;;;;;;;5096982;28;20888;-73
2022/05/22 12:29:48;;;;;;;3.80;2.30;;;;;;;;;;5096909;28;20474;-74
2022/05/22 12:32:19;;;;;;;2.80;1.57;;;;;;;;;;5097009;28;20430;-74
2022/05/22 12:34:49;;;;;;;2.10;1.70;;;;;;;;;;5096569;28;20481;-73
2022/05/22 12:37:23;;;;;;;3.97;1.67;;;;;;;;;;5096435;28;20462;-73
2022/05/22 12:39:55;;;;;;;2.80;1.67;;;;;;;;;;5097408;28;20470;-73
2022/05/22 12:42:24;;;;;;;2.40;1.77;;;;;;;;;;5096662;28;20438;-74
2022/05/22 12:44:53;;;;;;;5.83;1.83;;;;;;;;;;5097029;28;20454;-73
2022/05/22 12:47:20;;;;;;;2.00;1.43;;;;;;;;;;5096332;28;20450;-73
2022/05/22 12:49:54;;;;;;;3.10;1.50;;;;;;;;;;5096588;28;20481;-73
2022/05/22 12:52:29;;;;;;;4.30;1.50;;;;;;;;;;5096648;28;20438;-73
2022/05/22 12:54:57;;;;;;;2.67;1.50;;;;;;;;;;5096428;28;20492;-73
2022/05/22 12:57:24;;;;;;;2.80;1.67;;;;;;;;;;5096447;28;20451;-73
2022/05/22 12:59:54;;;;;;;2.33;1.50;;;;;;;;;;5096003;28;20466;-73
2022/05/22 13:02:36;;;;;;;3.10;1.90;;;;;;;;;;5096554;28;20542;-73
2022/05/22 13:05:05;;;;;;;3.20;2.67;;;;;;;;;;5095984;28;20431;-73
2022/05/22 13:07:34;;;;;;;2.40;1.77;;;;;;;;;;5096201;28;20810;-73
2022/05/22 13:10:12;;;;;;;3.40;1.80;;;;;;;;;;5096137;28;20895;-73
2022/05/22 13:12:40;;;;;;;2.63;1.70;;;;;;;;;;5096230;28;20965;-73
2022/05/22 13:15:15;;;;;;;4.43;3.10;;;;;;;;;;5096218;28;20490;-73
2022/05/22 13:17:50;;;;;;;1.90;1.50;;;;;;;;;;5096203;28;20835;-73
2022/05/22 13:20:24;;;;;;;1.90;1.60;;;;;;;;;;5095936;28;20470;-73
2022/05/22 13:23:02;;;;;;;2.10;1.70;;;;;;;;;;5095809;28;20801;-73
2022/05/22 13:25:30;;;;;;;2.30;1.70;;;;;;;;;;5095354;28;20427;-73
2022/05/22 13:27:57;;;;;;;2.13;1.73;;;;;;;;;;5095788;28;20455;-73
2022/05/22 13:30:26;;;;;;;2.60;1.73;;;;;;;;;;5095655;28;20474;-73
2022/05/22 13:32:55;;;;;;;5.20;2.03;;;;;;;;;;5095444;28;20447;-73
2022/05/22 13:35:23;;;;;;;2.30;1.63;;;;;;;;;;5095260;28;20486;-73
2022/05/22 13:37:51;;;;;;;3.20;1.50;;;;;;;;;;5095564;28;20451;-73
2022/05/22 13:40:31;;;;;;;2.10;1.80;;;;;;;;;;5095466;28;20475;-73
2022/05/22 13:43:10;;;;;;;2.07;1.60;;;;;;;;;;5095553;28;20439;-73
2022/05/22 13:45:58;;;;;;;2.90;1.87;;;;;;;;;;5095467;28;20531;-73
2022/05/22 13:48:34;;;;;;;2.27;1.60;;;;;;;;;;5090375;28;20455;-73
2022/05/22 13:54:00;;;;;;;2.00;1.70;;;;;;;;;;5095023;28;20540;-73
2022/05/22 13:56:34;;;;;;;3.60;1.80;;;;;;;;;;5095117;28;20474;-73
2022/05/22 13:59:02;;;;;;;2.23;2.03;;;;;;;;;;5094994;28;20935;-73
2022/05/22 14:01:29;;;;;;;7.20;1.87;;;;;;;;;;5095060;28;20473;-73
2022/05/22 14:04:00;;;;;;;1.93;1.73;;;;;;;;;;5095557;28;20450;-74
2022/05/22 14:06:38;;;;;;;2.60;1.50;;;;;;;;;;5095588;28;20534;-74
2022/05/22 14:09:07;;;;;;;3.20;1.70;;;;;;;;;;5094524;28;20467;-73
2022/05/22 14:11:35;;;;;;;4.30;1.60;;;;;;;;;;5094644;28;20902;-73
2022/05/22 14:14:04;;;;;;;4.17;2.23;;;;;;;;;;5094934;28;20451;-74
2022/05/22 14:16:32;;;;;;;4.30;1.80;;;;;;;;;;5094709;28;20486;-73
2022/05/22 14:19:03;;;;;;;2.93;1.70;;;;;;;;;;5094531;28;20435;-73
2022/05/22 14:21:32;;;;;;;4.00;1.77;;;;;;;;;;5094669;28;20474;-72
2022/05/22 14:26:48;;;;;;;3.07;1.80;;;;;;;;;;5094499;28;20927;-73
2022/05/22 14:29:15;;;;;;;3.47;1.70;;;;;;;;;;5094225;28;20451;-73
2022/05/22 14:31:43;;;;;;;2.67;1.70;;;;;;;;;;5094593;28;20458;-73
2022/05/22 14:34:19;;;;;;;3.63;1.93;;;;;;;;;;5094553;28;20458;-73
2022/05/22 14:36:50;;;;;;;1.90;1.70;;;;;;;;;;5093735;28;20830;-72
2022/05/22 14:39:17;;;;;;;3.03;1.90;;;;;;;;;;5094092;28;20461;-72
2022/05/22 14:41:45;;;;;;;2.50;1.60;;;;;;;;;;5094133;28;20461;-72
2022/05/22 14:44:13;;;;;;;2.73;1.70;;;;;;;;;;5094088;28;20459;-73
2022/05/22 14:46:43;;;;;;;1.90;1.63;;;;;;;;;;5093975;28;20447;-72
2022/05/22 14:49:13;;;;;;;3.90;1.60;;;;;;;;;;5094139;28;20475;-72
2022/05/22 14:51:43;;;;;;;2.27;1.60;;;;;;;;;;5093846;28;20457;-72
2022/05/22 14:54:13;;;;;;;9.97;9.07;;;;;;;;;;5094173;28;20845;-72
2022/05/22 14:56:43;;;;;;;4.00;2.50;;;;;;;;;;5093708;28;20467;-73
2022/05/22 14:59:14;;;;;;;3.27;1.90;;;;;;;;;;5093599;28;20450;-72
2022/05/22 15:01:42;;;;;;;3.03;1.70;;;;;;;;;;5093925;28;20828;-73
2022/05/22 15:04:12;;;;;;;2.53;1.70;;;;;;;;;;5093892;28;20447;-73
2022/05/22 15:06:46;;;;;;;4.23;2.80;;;;;;;;;;5093875;28;20526;-73
2022/05/22 15:09:23;;;;;;;4.53;1.90;;;;;;;;;;5093481;28;20438;-72